• Join FlightAware (Why Join?)
  • Login
  • US Flag 
05:39PM EDT


 

Airport Tracker/Info


-or-


 

Live Flight TrackerFlight Track Log ✈ SKW7363 ✈ 18-Aug-2013 ✈ KCOD - KSLC

Flight Track Log - Related Links

Times and Time Zones

All times are in EDT time to prevent confusion due to time zone crossing. See the SKW7363 flight status page for this flight to view local times or setup timezone preferences in your user account.

Time Position Orientation Groundspeed Altitude Reporting Facility
EDT Latitude Longitude Course Direction KTS MPH feet Rate Location/Type
09:59PM 44.5856 -108.9050 94° East 221 254 9,700  Level Salt Lake Center
10:00PM 44.1720 -108.6959 158° South  Level FlightAware Approximate
10:00PM 44.5283 -108.9408 204° Southwest 235 270 10,900  Level Salt Lake Center
10:01PM 44.0802 -108.6452 159° South  Level FlightAware Approximate
10:02PM 43.9882 -108.5950 159° South  Level FlightAware Approximate
10:02PM 44.4708 -109.0086 220° Southwest 256 295 13,000  Level Salt Lake Center
10:03PM 43.8969 -108.5425 157° South  Level FlightAware Approximate
10:03PM 44.4111 -109.0767 219° Southwest 272 313 14,900  Level Salt Lake Center
10:04PM 43.8058 -108.4894 157° South  Level FlightAware Approximate
10:04PM 44.3514 -109.1486 221° Southwest 280 322 16,900  Level Salt Lake Center
10:05PM 44.2769 -109.2361 220° Southwest 289 333 18,900 1,620 Climbing Salt Lake Center
10:06PM 44.2133 -109.3111 220° Southwest 297 342 20,300 1,260 Climbing Salt Lake Center
10:07PM 44.1478 -109.3878 220° Southwest 304 350 21,600 1,200 Climbing Salt Lake Center
10:08PM 44.0803 -109.4667 220° Southwest 313 360 22,800 1,260 Climbing Salt Lake Center
10:09PM 44.0042 -109.5539 220° Southwest 324 373 24,200 1,140 Climbing Salt Lake Center
10:10PM 43.9375 -109.6331 221° Southwest 329 379 25,200 840 Climbing Salt Lake Center
10:11PM 43.8572 -109.7261 220° Southwest 337 388 26,000 360 Climbing Salt Lake Center
10:12PM 43.7847 -109.8086 219° Southwest 348 400 26,000  Level Salt Lake Center
10:13PM 43.7133 -109.8911 220° Southwest 349 402 26,000  Level Salt Lake Center
10:14PM 43.6297 -109.9872 220° Southwest 349 402 26,000  Level Salt Lake Center
10:15PM 43.5600 -110.0661 219° Southwest 343 395 26,000  Level Salt Lake Center
10:16PM 43.4778 -110.1583 219° Southwest 341 392 26,000  Level Salt Lake Center
10:17PM 43.4078 -110.2372 219° Southwest 340 391 26,000  Level Salt Lake Center
10:18PM 43.3256 -110.3322 220° Southwest 345 397 26,000  Level Salt Lake Center
10:19PM 43.2547 -110.4117 219° Southwest 344 396 26,000  Level Salt Lake Center
10:20PM 43.1839 -110.4958 221° Southwest 347 399 26,000  Level Salt Lake Center
10:21PM 43.1014 -110.5864 219° Southwest 341 392 26,000  Level Salt Lake Center
10:22PM 43.0300 -110.6653 219° Southwest 344 396 26,000  Level Salt Lake Center
10:23PM 42.9464 -110.7572 219° Southwest 345 397 26,000  Level Salt Lake Center
10:24PM 42.8767 -110.8361 220° Southwest 341 392 26,000  Level Salt Lake Center
10:25PM 42.8047 -110.9156 219° Southwest 345 397 26,000  Level Salt Lake Center
10:26PM 42.7208 -111.0075 219° Southwest 346 398 26,000  Level Salt Lake Center
10:27PM 42.6517 -111.0839 219° Southwest 344 396 26,000  Level Salt Lake Center
10:28PM 42.5789 -111.1636 219° Southwest 339 390 26,000  Level Salt Lake Center
10:29PM 42.4908 -111.2603 219° Southwest 339 390 26,000  Level Salt Lake Center
10:30PM 42.4158 -111.3406 218° Southwest 345 397 26,000  Level Salt Lake Center
10:31PM 42.3417 -111.4219 219° Southwest 345 397 26,000  Level Salt Lake Center
10:32PM 42.2658 -111.5025 218° Southwest 346 398 26,000  Level Salt Lake Center
10:33PM 42.1917 -111.5842 219° Southwest 346 398 26,000  Level Salt Lake Center
10:34PM 42.1161 -111.6636 218° Southwest 346 398 26,000  Level Salt Lake Center
10:35PM 42.0408 -111.7450 219° Southwest 348 400 26,000  Level Salt Lake Center
10:36PM 41.9508 -111.8414 219° Southwest 348 400 26,000 -60 Level Salt Lake Center
10:37PM 41.8731 -111.9219 218° Southwest 352 405 25,900 -1,020 Descending Salt Lake Center
10:39PM 41.7989 -112.0008 218° Southwest 347 399 23,900 -2,160 Descending Salt Lake Center
10:39PM 41.7192 -112.0122 186° South 347 399 22,100 -2,040 Descending Salt Lake Center
10:40PM 41.6672 -112.0214 188° South 342 394 21,100 -1,740 Descending Salt Lake Center
10:41PM 41.6119 -112.0378 192° South 337 388 19,900 -1,920 Descending Salt Lake Center
10:42PM 41.5203 -112.0525 187° South 334 384 17,900 -1,980 Descending Salt Lake Center
10:43PM 41.4122 -112.0731 188° South 327 376 15,900 -1,740 Descending Salt Lake Center
10:44PM 41.3294 -112.0917 190° South 306 352 14,400 -1,500 Descending Salt Lake Center
10:45PM 41.2503 -112.1089 189° South 291 335 12,900 -1,500 Descending Salt Lake Center
10:46PM 41.1728 -112.1253 189° South 286 329 11,400 -900 Descending Salt Lake Center
10:47PM 41.0689 -112.1431 187° South 295 339 11,000 -240 Descending Salt Lake Center
10:48PM 41.0128 -112.1319 172° South 292 336 11,000  Level Salt Lake Center
10:49PM 40.9172 -112.1125 171° South 294 338 11,000  Level Salt Lake Center
10:50PM 40.8453 -112.1028 174° South 254 292 11,000 -480 Level Salt Lake Center
10:51PM 40.7786 -112.0947 175° South 242 278 10,100 -1,020 Descending Salt Lake Center
10:52PM 40.7114 -112.0869 175° South 244 281 9,000 -1,500 Descending Salt Lake Center
10:53PM 40.6503 -112.0606 162° South 223 257 7,100 -1,440 Descending Salt Lake Center
10:54PM 40.6611 -111.9947 78° East 181 208 6,200 -900 Descending Salt Lake Center
10:55PM 40.7056 -111.9911 North 156 180 5,400 -780 Descending Salt Lake Center
10:56PM 40.7469 -111.9939 357° North 151 174 4,700 -600 Descending Salt Lake Center
10:57PM 40.7908 -111.9972 357° North 145 167 4,200 -480 Descending Salt Lake Center